Flight Track Log - Related Links

Times and Time Zones

All times are in EST time to prevent confusion due to time zone crossing. See the N789EX flight status page for this flight to view local times or setup timezone preferences in your user account.

Time Position Orientation Groundspeed Altitude Reporting Facility
EST Latitude Longitude Course Direction KTS MPH feet Rate Location/Type
Wed 12:17:59 PM 47.4820 -122.2550 142° Southeast 225 259 1,400  Level FlightAware ADS-B
Wed 12:18:29 PM 47.4590 -122.2170 132° Southeast 259 298 2,500 2,545 Climbing FlightAware ADS-B
Wed 12:19:05 PM 47.4470 -122.1540 106° East 273 314 4,200 2,684 Climbing FlightAware ADS-B
Wed 12:19:45 PM 47.4360 -122.0900 104° East 280 322 5,900 2,813 Climbing FlightAware ADS-B
Wed 12:20:09 PM 47.4330 -122.0360 95° East 285 328 7,200 2,818 Climbing FlightAware ADS-B
Wed 12:20:51 PM 47.4330 -122.0140 90° East 297 342 9,000 1,671 Climbing FlightAware ADS-B
Wed 12:21:28 PM 47.4310 -121.8860 91° East 303 349 9,400 1,371 Climbing FlightAware ADS-B
Wed 12:22:01 PM 47.4300 -121.7930 91° East 369 425 10,600 1,714 Climbing FlightAware ADS-B
Wed 12:22:31 PM 47.4300 -121.7080 90° East 373 429 11,200 1,658 Climbing FlightAware ADS-B
Wed 12:23:17 PM 47.4280 -121.5920 91° East 422 486 12,700 2,129 Climbing FlightAware ADS-B
Wed 12:24:04 PM 47.4250 -121.4440 92° East 432 497 14,500 1,390 Climbing FlightAware ADS-B
Wed 12:24:39 PM 47.4240 -121.3350 91° East 460 529 14,600 92 Climbing FlightAware ADS-B
Wed 12:25:09 PM 47.4220 -121.2450 92° East 458 527 14,600  Level FlightAware ADS-B
Wed 12:25:37 PM 47.4210 -121.1510 91° East 461 531 14,600  Level FlightAware ADS-B
Wed 12:26:04 PM 47.4190 -121.0640 92° East 460 529 14,600  Level FlightAware ADS-B
Wed 12:26:41 PM 47.4180 -120.9650 91° East 460 529 14,600  Level FlightAware ADS-B
Wed 12:27:17 PM 47.4170 -120.8690 91° East 460 529 14,600  Level FlightAware ADS-B
Wed 12:27:54 PM 47.4150 -120.7700 92° East 460 529 14,600 -259 Level FlightAware ADS-B
Wed 12:29:13 PM 47.4080 -120.5450 93° East 347 399 14,100 -727 Descending FlightAware ADS-B
Wed 12:30:06 PM 47.4040 -120.4230 93° East 335 386 13,000 -1,379 Descending FlightAware ADS-B
Wed 12:30:40 PM 47.4030 -120.3470 91° East 336 387 12,100 -1,588 Descending FlightAware ADS-B
Wed 12:31:14 PM 47.4030 -120.2660 90° East 337 388 11,200 -759 Descending FlightAware ADS-B
Wed 12:31:59 PM 47.4040 -120.1780 89° East 337 388 11,100 -76 Descending FlightAware ADS-B
Wed 12:32:33 PM 47.4040 -120.1120 90° East 337 388 11,100  Level FlightAware ADS-B
Wed 12:33:09 PM 47.4050 -120.0410 89° East 337 388 11,100 -385 Level FlightAware ADS-B
Wed 12:33:51 PM 47.3436 -119.9517 89° East 331 381 10,600 -990 Descending Seattle Center
Wed 12:34:52 PM 47.2797 -119.8572 135° Southeast 326 375 9,400 -1,082 Descending Seattle Center
Wed 12:35:53 PM 47.2186 -119.7717 136° Southeast 308 354 8,400 -787 Descending Seattle Center
Wed 12:36:54 PM 47.1614 -119.6906 136° Southeast 288 331 7,800 -885 Descending Seattle Center
Wed 12:37:55 PM 47.1086 -119.6172 137° Southeast 249 287 6,600 -1,377 Descending Seattle Center
Wed 12:38:56 PM 47.0764 -119.5350 120° Southeast 243 280 5,000 -1,180 Descending Seattle Center
Wed 12:39:57 PM 47.0597 -119.4431 105° East 235 270 4,200 -984 Descending Seattle Center
Wed 12:40:58 PM 47.0433 -119.3572 106° East 224 258 3,000 -590 Descending Seattle Center
Wed 12:41:59 PM 47.0325 -119.2619 99° East 229 264 3,000  Level Seattle Center
Wed 12:42:59 PM 47.0817 -119.2586 North 191 220 3,000 -248 Level Seattle Center
Wed 12:44:00 PM 47.1292 -119.2811 342° North 183 211 2,500 -689 Descending Seattle Center
Wed 12:45:01 PM 47.1733 -119.3017 342° North 171 197 1,600 197 Descending Seattle Center
Wed 12:46:02 PM 47.2219 -119.3242 343° North 176 203 2,900 1,033 Climbing Seattle Center
Wed 12:47:03 PM 47.2475 -119.2706 55° Northeast 227 261 3,700 393 Climbing Seattle Center
Wed 12:48:04 PM 47.1958 -119.2247 149° Southeast 218 251 3,700 -49 Level Seattle Center
Wed 12:49:05 PM 47.1486 -119.1875 152° Southeast 216 249 3,600 -98 Descending Seattle Center

Login

Don't have an account? Register now (free) for customized features, flight alerts, and more!